sensor_id;sensor_type;location;lat;lon;timestamp;P1;durP1;ratioP1;P2;durP2;ratioP2
15476;SDS011;7840;42.702;23.296;2022-07-01T00:00:06;7.45;;;4.28;;
15476;SDS011;7840;42.702;23.296;2022-07-01T00:02:37;7.32;;;4.82;;
15476;SDS011;7840;42.702;23.296;2022-07-01T00:05:05;8.18;;;5.50;;
15476;SDS011;7840;42.702;23.296;2022-07-01T00:07:33;5.07;;;4.63;;
15476;SDS011;7840;42.702;23.296;2022-07-01T00:10:00;7.43;;;4.82;;
15476;SDS011;7840;42.702;23.296;2022-07-01T00:12:29;12.18;;;4.90;;
15476;SDS011;7840;42.702;23.296;2022-07-01T00:14:57;6.22;;;5.30;;
15476;SDS011;7840;42.702;23.296;2022-07-01T00:17:25;7.75;;;5.53;;
15476;SDS011;7840;42.702;23.296;2022-07-01T00:19:53;8.90;;;5.68;;
15476;SDS011;7840;42.702;23.296;2022-07-01T00:22:24;7.32;;;5.32;;
15476;SDS011;7840;42.702;23.296;2022-07-01T00:24:54;10.43;;;6.10;;
15476;SDS011;7840;42.702;23.296;2022-07-01T00:27:21;7.82;;;5.35;;
15476;SDS011;7840;42.702;23.296;2022-07-01T00:29:51;10.20;;;5.57;;
15476;SDS011;7840;42.702;23.296;2022-07-01T00:32:19;7.47;;;5.53;;
15476;SDS011;7840;42.702;23.296;2022-07-01T00:34:56;8.40;;;5.60;;
15476;SDS011;7840;42.702;23.296;2022-07-01T00:37:24;8.85;;;5.75;;
15476;SDS011;7840;42.702;23.296;2022-07-01T00:39:51;8.77;;;5.85;;
15476;SDS011;7840;42.702;23.296;2022-07-01T00:42:19;6.25;;;5.50;;
15476;SDS011;7840;42.702;23.296;2022-07-01T00:44:47;10.73;;;6.20;;
15476;SDS011;7840;42.702;23.296;2022-07-01T00:47:16;8.60;;;6.05;;
15476;SDS011;7840;42.702;23.296;2022-07-01T00:49:43;7.57;;;6.00;;
15476;SDS011;7840;42.702;23.296;2022-07-01T00:52:11;9.88;;;6.25;;
15476;SDS011;7840;42.702;23.296;2022-07-01T00:54:39;6.60;;;5.85;;
15476;SDS011;7840;42.702;23.296;2022-07-01T00:57:08;6.65;;;5.80;;
15476;SDS011;7840;42.702;23.296;2022-07-01T00:59:37;8.45;;;5.85;;
15476;SDS011;7840;42.702;23.296;2022-07-01T01:02:06;8.98;;;5.78;;
15476;SDS011;7840;42.702;23.296;2022-07-01T01:04:35;11.15;;;5.90;;
15476;SDS011;7840;42.702;23.296;2022-07-01T01:07:03;6.57;;;5.78;;
15476;SDS011;7840;42.702;23.296;2022-07-01T01:09:31;7.72;;;5.72;;
15476;SDS011;7840;42.702;23.296;2022-07-01T01:11:59;7.45;;;6.15;;
15476;SDS011;7840;42.702;23.296;2022-07-01T01:14:28;6.18;;;5.53;;
15476;SDS011;7840;42.702;23.296;2022-07-01T01:16:58;6.45;;;5.85;;
15476;SDS011;7840;42.702;23.296;2022-07-01T01:19:26;8.82;;;5.93;;
15476;SDS011;7840;42.702;23.296;2022-07-01T01:21:57;6.97;;;5.60;;
15476;SDS011;7840;42.702;23.296;2022-07-01T01:24:25;10.50;;;6.65;;
15476;SDS011;7840;42.702;23.296;2022-07-01T01:26:53;7.40;;;5.75;;
15476;SDS011;7840;42.702;23.296;2022-07-01T01:29:21;8.10;;;5.40;;
15476;SDS011;7840;42.702;23.296;2022-07-01T01:31:49;8.00;;;4.95;;
15476;SDS011;7840;42.702;23.296;2022-07-01T01:34:18;6.85;;;6.25;;
15476;SDS011;7840;42.702;23.296;2022-07-01T01:36:46;7.30;;;6.68;;
15476;SDS011;7840;42.702;23.296;2022-07-01T01:39:15;7.97;;;7.18;;
15476;SDS011;7840;42.702;23.296;2022-07-01T01:41:43;8.75;;;5.95;;
15476;SDS011;7840;42.702;23.296;2022-07-01T01:44:11;7.70;;;6.05;;
15476;SDS011;7840;42.702;23.296;2022-07-01T01:46:39;7.10;;;6.40;;
15476;SDS011;7840;42.702;23.296;2022-07-01T01:49:08;7.95;;;5.93;;
15476;SDS011;7840;42.702;23.296;2022-07-01T01:51:36;10.45;;;6.28;;
15476;SDS011;7840;42.702;23.296;2022-07-01T01:54:04;9.70;;;6.28;;
15476;SDS011;7840;42.702;23.296;2022-07-01T01:56:35;9.15;;;6.50;;
15476;SDS011;7840;42.702;23.296;2022-07-01T01:59:02;10.27;;;6.40;;
15476;SDS011;7840;42.702;23.296;2022-07-01T02:01:32;6.78;;;6.10;;
15476;SDS011;7840;42.702;23.296;2022-07-01T02:04:00;6.93;;;6.22;;
15476;SDS011;7840;42.702;23.296;2022-07-01T02:06:27;9.02;;;6.15;;
15476;SDS011;7840;42.702;23.296;2022-07-01T02:08:55;10.93;;;6.38;;
15476;SDS011;7840;42.702;23.296;2022-07-01T02:11:22;9.40;;;6.18;;
15476;SDS011;7840;42.702;23.296;2022-07-01T02:13:51;6.50;;;5.75;;
15476;SDS011;7840;42.702;23.296;2022-07-01T02:16:19;6.85;;;5.80;;
15476;SDS011;7840;42.702;23.296;2022-07-01T02:18:46;7.78;;;6.32;;
15476;SDS011;7840;42.702;23.296;2022-07-01T02:21:15;6.57;;;5.97;;
15476;SDS011;7840;42.702;23.296;2022-07-01T02:23:42;7.15;;;6.13;;
15476;SDS011;7840;42.702;23.296;2022-07-01T02:26:10;5.95;;;5.40;;
15476;SDS011;7840;42.702;23.296;2022-07-01T02:28:37;7.47;;;6.05;;
15476;SDS011;7840;42.702;23.296;2022-07-01T02:31:06;6.63;;;5.80;;
15476;SDS011;7840;42.702;23.296;2022-07-01T02:33:34;6.30;;;5.78;;
15476;SDS011;7840;42.702;23.296;2022-07-01T02:36:02;7.60;;;5.95;;
15476;SDS011;7840;42.702;23.296;2022-07-01T02:38:30;15.38;;;6.50;;
15476;SDS011;7840;42.702;23.296;2022-07-01T02:40:57;6.65;;;5.90;;
15476;SDS011;7840;42.702;23.296;2022-07-01T02:43:25;6.75;;;6.07;;
15476;SDS011;7840;42.702;23.296;2022-07-01T02:45:55;6.93;;;5.55;;
15476;SDS011;7840;42.702;23.296;2022-07-01T02:48:24;6.47;;;5.90;;
15476;SDS011;7840;42.702;23.296;2022-07-01T02:50:53;7.88;;;5.70;;
15476;SDS011;7840;42.702;23.296;2022-07-01T02:53:20;6.75;;;5.60;;
15476;SDS011;7840;42.702;23.296;2022-07-01T02:55:48;10.75;;;5.75;;
15476;SDS011;7840;42.702;23.296;2022-07-01T02:58:16;8.52;;;5.40;;
15476;SDS011;7840;42.702;23.296;2022-07-01T03:00:44;8.73;;;5.57;;
15476;SDS011;7840;42.702;23.296;2022-07-01T03:03:14;13.70;;;6.68;;
15476;SDS011;7840;42.702;23.296;2022-07-01T03:05:43;7.30;;;5.43;;
15476;SDS011;7840;42.702;23.296;2022-07-01T03:08:34;8.52;;;5.93;;
15476;SDS011;7840;42.702;23.296;2022-07-01T03:11:14;8.95;;;5.85;;
15476;SDS011;7840;42.702;23.296;2022-07-01T03:13:42;9.50;;;5.50;;
15476;SDS011;7840;42.702;23.296;2022-07-01T03:16:09;8.75;;;5.97;;
15476;SDS011;7840;42.702;23.296;2022-07-01T03:18:40;7.35;;;5.60;;
15476;SDS011;7840;42.702;23.296;2022-07-01T03:21:10;7.47;;;5.55;;
15476;SDS011;7840;42.702;23.296;2022-07-01T03:23:38;8.38;;;6.07;;
15476;SDS011;7840;42.702;23.296;2022-07-01T03:26:06;6.88;;;5.70;;
15476;SDS011;7840;42.702;23.296;2022-07-01T03:28:37;8.82;;;5.80;;
15476;SDS011;7840;42.702;23.296;2022-07-01T03:31:05;7.13;;;6.40;;
15476;SDS011;7840;42.702;23.296;2022-07-01T03:33:33;10.88;;;6.20;;
15476;SDS011;7840;42.702;23.296;2022-07-01T03:36:00;8.43;;;6.03;;
15476;SDS011;7840;42.702;23.296;2022-07-01T03:38:29;6.03;;;5.47;;
15476;SDS011;7840;42.702;23.296;2022-07-01T03:40:57;6.47;;;5.70;;
15476;SDS011;7840;42.702;23.296;2022-07-01T03:43:27;11.82;;;6.22;;
15476;SDS011;7840;42.702;23.296;2022-07-01T03:45:55;10.00;;;6.43;;
15476;SDS011;7840;42.702;23.296;2022-07-01T03:48:23;9.15;;;6.05;;
15476;SDS011;7840;42.702;23.296;2022-07-01T03:50:53;9.35;;;6.60;;
15476;SDS011;7840;42.702;23.296;2022-07-01T03:53:20;8.93;;;6.55;;
15476;SDS011;7840;42.702;23.296;2022-07-01T03:56:09;8.10;;;6.13;;
15476;SDS011;7840;42.702;23.296;2022-07-01T04:01:19;9.63;;;6.70;;
15476;SDS011;7840;42.702;23.296;2022-07-01T04:03:46;10.63;;;6.82;;
15476;SDS011;7840;42.702;23.296;2022-07-01T04:06:14;12.32;;;7.40;;
15476;SDS011;7840;42.702;23.296;2022-07-01T04:08:42;8.23;;;6.60;;
15476;SDS011;7840;42.702;23.296;2022-07-01T04:11:11;12.73;;;7.00;;
15476;SDS011;7840;42.702;23.296;2022-07-01T04:13:39;10.07;;;6.72;;
15476;SDS011;7840;42.702;23.296;2022-07-01T04:16:11;9.60;;;6.60;;
15476;SDS011;7840;42.702;23.296;2022-07-01T04:18:39;13.60;;;6.38;;
15476;SDS011;7840;42.702;23.296;2022-07-01T04:21:18;6.35;;;5.75;;
15476;SDS011;7840;42.702;23.296;2022-07-01T04:24:02;7.28;;;5.72;;
15476;SDS011;7840;42.702;23.296;2022-07-01T04:26:32;6.68;;;6.03;;
15476;SDS011;7840;42.702;23.296;2022-07-01T04:29:01;6.63;;;5.72;;
15476;SDS011;7840;42.702;23.296;2022-07-01T04:31:30;9.95;;;6.10;;
15476;SDS011;7840;42.702;23.296;2022-07-01T04:33:58;10.88;;;6.85;;
15476;SDS011;7840;42.702;23.296;2022-07-01T04:36:25;8.15;;;7.05;;
15476;SDS011;7840;42.702;23.296;2022-07-01T04:38:53;6.50;;;5.80;;
15476;SDS011;7840;42.702;23.296;2022-07-01T04:41:21;9.38;;;6.43;;
15476;SDS011;7840;42.702;23.296;2022-07-01T04:44:07;9.77;;;6.60;;
15476;SDS011;7840;42.702;23.296;2022-07-01T04:46:35;7.80;;;6.50;;
15476;SDS011;7840;42.702;23.296;2022-07-01T04:49:06;9.98;;;7.10;;
15476;SDS011;7840;42.702;23.296;2022-07-01T04:51:34;7.13;;;6.13;;
15476;SDS011;7840;42.702;23.296;2022-07-01T04:54:05;10.52;;;6.95;;
15476;SDS011;7840;42.702;23.296;2022-07-01T04:56:34;7.40;;;6.65;;
15476;SDS011;7840;42.702;23.296;2022-07-01T04:59:02;7.78;;;6.78;;
15476;SDS011;7840;42.702;23.296;2022-07-01T05:01:33;9.23;;;7.03;;
15476;SDS011;7840;42.702;23.296;2022-07-01T05:04:01;11.48;;;7.35;;
15476;SDS011;7840;42.702;23.296;2022-07-01T05:06:30;9.95;;;6.72;;
15476;SDS011;7840;42.702;23.296;2022-07-01T05:09:03;10.02;;;6.30;;
15476;SDS011;7840;42.702;23.296;2022-07-01T05:12:06;8.82;;;7.38;;
15476;SDS011;7840;42.702;23.296;2022-07-01T05:14:34;9.70;;;7.10;;
15476;SDS011;7840;42.702;23.296;2022-07-01T05:17:02;8.57;;;7.30;;
15476;SDS011;7840;42.702;23.296;2022-07-01T05:19:32;9.52;;;7.50;;
15476;SDS011;7840;42.702;23.296;2022-07-01T05:22:21;13.40;;;7.72;;
15476;SDS011;7840;42.702;23.296;2022-07-01T05:25:01;8.77;;;7.07;;
15476;SDS011;7840;42.702;23.296;2022-07-01T05:27:31;14.38;;;6.38;;
15476;SDS011;7840;42.702;23.296;2022-07-01T05:30:00;8.32;;;7.50;;
15476;SDS011;7840;42.702;23.296;2022-07-01T05:32:28;14.40;;;7.32;;
15476;SDS011;7840;42.702;23.296;2022-07-01T05:34:59;11.65;;;6.55;;
15476;SDS011;7840;42.702;23.296;2022-07-01T05:37:26;12.63;;;7.00;;
15476;SDS011;7840;42.702;23.296;2022-07-01T05:39:54;11.23;;;7.38;;
15476;SDS011;7840;42.702;23.296;2022-07-01T05:42:25;13.38;;;6.50;;
15476;SDS011;7840;42.702;23.296;2022-07-01T05:44:58;7.80;;;7.00;;
15476;SDS011;7840;42.702;23.296;2022-07-01T05:48:00;13.52;;;6.40;;
15476;SDS011;7840;42.702;23.296;2022-07-01T05:50:28;9.57;;;6.72;;
15476;SDS011;7840;42.702;23.296;2022-07-01T05:53:06;9.02;;;6.80;;
15476;SDS011;7840;42.702;23.296;2022-07-01T05:55:37;9.77;;;7.00;;
15476;SDS011;7840;42.702;23.296;2022-07-01T05:58:08;10.68;;;7.72;;
15476;SDS011;7840;42.702;23.296;2022-07-01T06:00:42;15.90;;;7.75;;
15476;SDS011;7840;42.702;23.296;2022-07-01T06:03:10;10.32;;;6.25;;
15476;SDS011;7840;42.702;23.296;2022-07-01T06:05:41;10.50;;;6.15;;
15476;SDS011;7840;42.702;23.296;2022-07-01T06:08:12;7.90;;;7.10;;
15476;SDS011;7840;42.702;23.296;2022-07-01T06:10:40;9.27;;;6.80;;
15476;SDS011;7840;42.702;23.296;2022-07-01T06:13:08;7.78;;;6.05;;
15476;SDS011;7840;42.702;23.296;2022-07-01T06:15:52;11.52;;;7.10;;
15476;SDS011;7840;42.702;23.296;2022-07-01T06:18:37;7.15;;;6.53;;
15476;SDS011;7840;42.702;23.296;2022-07-01T06:21:08;8.88;;;6.30;;
15476;SDS011;7840;42.702;23.296;2022-07-01T06:23:35;8.15;;;6.43;;
15476;SDS011;7840;42.702;23.296;2022-07-01T06:26:06;11.18;;;6.45;;
15476;SDS011;7840;42.702;23.296;2022-07-01T06:28:45;7.50;;;6.72;;
15476;SDS011;7840;42.702;23.296;2022-07-01T06:31:20;9.88;;;6.10;;
15476;SDS011;7840;42.702;23.296;2022-07-01T06:33:48;12.85;;;5.93;;
15476;SDS011;7840;42.702;23.296;2022-07-01T06:36:16;11.70;;;6.65;;
15476;SDS011;7840;42.702;23.296;2022-07-01T06:38:46;10.02;;;5.97;;
15476;SDS011;7840;42.702;23.296;2022-07-01T06:41:26;9.25;;;6.65;;
15476;SDS011;7840;42.702;23.296;2022-07-01T06:44:13;10.73;;;6.07;;
15476;SDS011;7840;42.702;23.296;2022-07-01T06:46:44;9.63;;;5.28;;
15476;SDS011;7840;42.702;23.296;2022-07-01T06:49:12;11.90;;;6.30;;
15476;SDS011;7840;42.702;23.296;2022-07-01T06:51:40;13.98;;;6.30;;
15476;SDS011;7840;42.702;23.296;2022-07-01T06:54:11;12.35;;;6.10;;
15476;SDS011;7840;42.702;23.296;2022-07-01T06:56:44;11.60;;;6.15;;
15476;SDS011;7840;42.702;23.296;2022-07-01T06:59:12;10.00;;;6.68;;
15476;SDS011;7840;42.702;23.296;2022-07-01T07:01:49;11.02;;;6.78;;
15476;SDS011;7840;42.702;23.296;2022-07-01T07:04:26;6.65;;;5.72;;
15476;SDS011;7840;42.702;23.296;2022-07-01T07:06:53;6.80;;;6.10;;
15476;SDS011;7840;42.702;23.296;2022-07-01T07:09:27;10.63;;;6.13;;
15476;SDS011;7840;42.702;23.296;2022-07-01T07:11:55;11.13;;;6.53;;
15476;SDS011;7840;42.702;23.296;2022-07-01T07:14:42;8.25;;;6.55;;
15476;SDS011;7840;42.702;23.296;2022-07-01T07:17:29;10.52;;;6.50;;
15476;SDS011;7840;42.702;23.296;2022-07-01T07:19:59;13.52;;;6.82;;
15476;SDS011;7840;42.702;23.296;2022-07-01T07:22:27;9.25;;;6.03;;
15476;SDS011;7840;42.702;23.296;2022-07-01T07:25:14;9.20;;;6.13;;
15476;SDS011;7840;42.702;23.296;2022-07-01T07:27:43;12.65;;;6.00;;
15476;SDS011;7840;42.702;23.296;2022-07-01T07:30:17;9.40;;;6.10;;
15476;SDS011;7840;42.702;23.296;2022-07-01T07:32:46;10.60;;;6.65;;
15476;SDS011;7840;42.702;23.296;2022-07-01T07:35:17;9.18;;;6.22;;
15476;SDS011;7840;42.702;23.296;2022-07-01T07:37:49;9.27;;;5.93;;
15476;SDS011;7840;42.702;23.296;2022-07-01T07:40:16;10.45;;;6.05;;
15476;SDS011;7840;42.702;23.296;2022-07-01T07:42:51;10.75;;;5.72;;
15476;SDS011;7840;42.702;23.296;2022-07-01T07:45:19;12.05;;;5.95;;
15476;SDS011;7840;42.702;23.296;2022-07-01T07:48:02;12.60;;;5.68;;
15476;SDS011;7840;42.702;23.296;2022-07-01T07:50:31;14.43;;;6.07;;
15476;SDS011;7840;42.702;23.296;2022-07-01T07:52:59;7.43;;;4.93;;
15476;SDS011;7840;42.702;23.296;2022-07-01T07:55:26;8.32;;;5.25;;
15476;SDS011;7840;42.702;23.296;2022-07-01T07:57:58;10.63;;;5.90;;
15476;SDS011;7840;42.702;23.296;2022-07-01T08:00:25;6.80;;;4.82;;
15476;SDS011;7840;42.702;23.296;2022-07-01T08:02:53;8.38;;;5.55;;
15476;SDS011;7840;42.702;23.296;2022-07-01T08:05:23;7.38;;;5.60;;
15476;SDS011;7840;42.702;23.296;2022-07-01T08:07:57;9.25;;;6.10;;
15476;SDS011;7840;42.702;23.296;2022-07-01T08:10:24;10.10;;;5.82;;
15476;SDS011;7840;42.702;23.296;2022-07-01T08:12:52;8.70;;;5.60;;
15476;SDS011;7840;42.702;23.296;2022-07-01T08:15:22;8.05;;;5.25;;
15476;SDS011;7840;42.702;23.296;2022-07-01T08:17:49;9.60;;;4.35;;
15476;SDS011;7840;42.702;23.296;2022-07-01T08:20:17;5.10;;;4.60;;
15476;SDS011;7840;42.702;23.296;2022-07-01T08:22:46;7.28;;;5.35;;
15476;SDS011;7840;42.702;23.296;2022-07-01T08:25:14;8.05;;;4.95;;
15476;SDS011;7840;42.702;23.296;2022-07-01T08:27:43;7.40;;;4.70;;
15476;SDS011;7840;42.702;23.296;2022-07-01T08:30:28;5.85;;;4.82;;
15476;SDS011;7840;42.702;23.296;2022-07-01T08:32:56;8.65;;;5.28;;
15476;SDS011;7840;42.702;23.296;2022-07-01T08:35:23;10.10;;;4.57;;
15476;SDS011;7840;42.702;23.296;2022-07-01T08:37:52;12.15;;;5.00;;
15476;SDS011;7840;42.702;23.296;2022-07-01T08:40:26;11.38;;;4.57;;
15476;SDS011;7840;42.702;23.296;2022-07-01T08:42:57;7.53;;;4.43;;
15476;SDS011;7840;42.702;23.296;2022-07-01T08:45:33;7.65;;;4.57;;
15476;SDS011;7840;42.702;23.296;2022-07-01T08:48:02;7.10;;;4.85;;
15476;SDS011;7840;42.702;23.296;2022-07-01T08:50:33;7.65;;;4.72;;
15476;SDS011;7840;42.702;23.296;2022-07-01T08:53:11;7.32;;;4.55;;
15476;SDS011;7840;42.702;23.296;2022-07-01T08:56:01;7.35;;;4.90;;
15476;SDS011;7840;42.702;23.296;2022-07-01T08:58:47;7.63;;;5.38;;
15476;SDS011;7840;42.702;23.296;2022-07-01T09:01:18;7.78;;;5.00;;
15476;SDS011;7840;42.702;23.296;2022-07-01T09:03:47;6.30;;;4.85;;
15476;SDS011;7840;42.702;23.296;2022-07-01T09:06:16;6.65;;;4.60;;
15476;SDS011;7840;42.702;23.296;2022-07-01T09:08:47;7.80;;;4.68;;
15476;SDS011;7840;42.702;23.296;2022-07-01T09:11:53;9.23;;;4.90;;
15476;SDS011;7840;42.702;23.296;2022-07-01T09:14:25;9.85;;;4.78;;
15476;SDS011;7840;42.702;23.296;2022-07-01T09:17:30;6.00;;;4.97;;
15476;SDS011;7840;42.702;23.296;2022-07-01T09:20:05;8.35;;;4.88;;
15476;SDS011;7840;42.702;23.296;2022-07-01T09:22:35;8.88;;;5.40;;
15476;SDS011;7840;42.702;23.296;2022-07-01T09:25:05;10.30;;;4.72;;
15476;SDS011;7840;42.702;23.296;2022-07-01T09:27:40;7.10;;;4.35;;
15476;SDS011;7840;42.702;23.296;2022-07-01T09:30:08;11.32;;;5.00;;
15476;SDS011;7840;42.702;23.296;2022-07-01T09:32:36;6.60;;;4.85;;
15476;SDS011;7840;42.702;23.296;2022-07-01T09:35:23;8.10;;;4.63;;
15476;SDS011;7840;42.702;23.296;2022-07-01T09:37:54;9.00;;;4.47;;
15476;SDS011;7840;42.702;23.296;2022-07-01T09:40:23;9.02;;;4.53;;
15476;SDS011;7840;42.702;23.296;2022-07-01T09:42:51;8.07;;;4.72;;
15476;SDS011;7840;42.702;23.296;2022-07-01T09:45:21;5.63;;;4.88;;
15476;SDS011;7840;42.702;23.296;2022-07-01T09:47:49;8.68;;;4.80;;
15476;SDS011;7840;42.702;23.296;2022-07-01T09:50:21;4.82;;;4.07;;
15476;SDS011;7840;42.702;23.296;2022-07-01T09:52:49;6.57;;;4.25;;
15476;SDS011;7840;42.702;23.296;2022-07-01T09:55:17;4.90;;;4.40;;
15476;SDS011;7840;42.702;23.296;2022-07-01T09:58:00;6.55;;;4.15;;
15476;SDS011;7840;42.702;23.296;2022-07-01T10:00:30;7.45;;;4.20;;
15476;SDS011;7840;42.702;23.296;2022-07-01T10:03:15;9.02;;;4.05;;
15476;SDS011;7840;42.702;23.296;2022-07-01T10:05:47;7.13;;;4.10;;
15476;SDS011;7840;42.702;23.296;2022-07-01T10:08:23;4.43;;;4.03;;
15476;SDS011;7840;42.702;23.296;2022-07-01T10:11:18;7.43;;;3.72;;
15476;SDS011;7840;42.702;23.296;2022-07-01T10:14:06;4.68;;;3.42;;
15476;SDS011;7840;42.702;23.296;2022-07-01T10:16:35;4.97;;;3.90;;
15476;SDS011;7840;42.702;23.296;2022-07-01T10:19:23;5.85;;;3.90;;
15476;SDS011;7840;42.702;23.296;2022-07-01T10:28:11;6.95;;;4.10;;
15476;SDS011;7840;42.702;23.296;2022-07-01T10:30:49;8.02;;;4.18;;
15476;SDS011;7840;42.702;23.296;2022-07-01T10:36:10;7.40;;;4.15;;
15476;SDS011;7840;42.702;23.296;2022-07-01T10:41:58;5.18;;;3.58;;
15476;SDS011;7840;42.702;23.296;2022-07-01T10:44:28;10.38;;;7.03;;
15476;SDS011;7840;42.702;23.296;2022-07-01T10:50:20;4.15;;;3.70;;
15476;SDS011;7840;42.702;23.296;2022-07-01T10:55:44;4.47;;;3.90;;
15476;SDS011;7840;42.702;23.296;2022-07-01T10:58:15;4.75;;;4.35;;
15476;SDS011;7840;42.702;23.296;2022-07-01T11:00:45;5.05;;;4.22;;
15476;SDS011;7840;42.702;23.296;2022-07-01T11:03:23;5.10;;;3.90;;
15476;SDS011;7840;42.702;23.296;2022-07-01T11:05:53;4.22;;;3.80;;
15476;SDS011;7840;42.702;23.296;2022-07-01T11:08:24;5.60;;;4.10;;
15476;SDS011;7840;42.702;23.296;2022-07-01T11:10:54;9.10;;;4.82;;
15476;SDS011;7840;42.702;23.296;2022-07-01T11:13:26;7.15;;;4.97;;
15476;SDS011;7840;42.702;23.296;2022-07-01T11:16:08;8.88;;;4.88;;
15476;SDS011;7840;42.702;23.296;2022-07-01T11:18:38;6.75;;;4.57;;
15476;SDS011;7840;42.702;23.296;2022-07-01T11:21:12;5.03;;;4.53;;
15476;SDS011;7840;42.702;23.296;2022-07-01T11:23:53;4.95;;;4.10;;
15476;SDS011;7840;42.702;23.296;2022-07-01T11:26:21;5.13;;;4.43;;
15476;SDS011;7840;42.702;23.296;2022-07-01T11:28:50;6.63;;;4.45;;
15476;SDS011;7840;42.702;23.296;2022-07-01T11:31:32;6.72;;;4.30;;
15476;SDS011;7840;42.702;23.296;2022-07-01T11:34:14;7.55;;;4.15;;
15476;SDS011;7840;42.702;23.296;2022-07-01T11:36:45;5.10;;;4.45;;
15476;SDS011;7840;42.702;23.296;2022-07-01T11:39:31;5.45;;;4.20;;
15476;SDS011;7840;42.702;23.296;2022-07-01T11:42:01;8.45;;;4.30;;
15476;SDS011;7840;42.702;23.296;2022-07-01T11:44:32;3.90;;;3.60;;
15476;SDS011;7840;42.702;23.296;2022-07-01T11:47:02;6.55;;;3.85;;
15476;SDS011;7840;42.702;23.296;2022-07-01T11:49:31;4.35;;;3.95;;
15476;SDS011;7840;42.702;23.296;2022-07-01T11:52:02;4.78;;;3.70;;
15476;SDS011;7840;42.702;23.296;2022-07-01T11:54:34;6.00;;;3.70;;
15476;SDS011;7840;42.702;23.296;2022-07-01T11:57:08;3.90;;;3.55;;
15476;SDS011;7840;42.702;23.296;2022-07-01T11:59:37;3.95;;;3.60;;
15476;SDS011;7840;42.702;23.296;2022-07-01T12:02:18;4.40;;;3.60;;
15476;SDS011;7840;42.702;23.296;2022-07-01T12:04:51;6.82;;;3.65;;
15476;SDS011;7840;42.702;23.296;2022-07-01T12:07:20;4.70;;;3.55;;
15476;SDS011;7840;42.702;23.296;2022-07-01T12:09:51;8.57;;;3.58;;
15476;SDS011;7840;42.702;23.296;2022-07-01T12:12:20;5.07;;;3.38;;
15476;SDS011;7840;42.702;23.296;2022-07-01T12:14:49;3.90;;;3.20;;
15476;SDS011;7840;42.702;23.296;2022-07-01T12:17:18;5.53;;;3.80;;
15476;SDS011;7840;42.702;23.296;2022-07-01T12:19:46;7.05;;;4.13;;
15476;SDS011;7840;42.702;23.296;2022-07-01T12:22:16;6.30;;;3.83;;
15476;SDS011;7840;42.702;23.296;2022-07-01T12:24:46;7.32;;;4.00;;
15476;SDS011;7840;42.702;23.296;2022-07-01T12:27:14;5.45;;;3.60;;
15476;SDS011;7840;42.702;23.296;2022-07-01T12:29:50;7.15;;;3.80;;
15476;SDS011;7840;42.702;23.296;2022-07-01T12:32:20;4.72;;;3.75;;
15476;SDS011;7840;42.702;23.296;2022-07-01T12:34:49;4.20;;;3.80;;
15476;SDS011;7840;42.702;23.296;2022-07-01T12:37:18;4.55;;;4.20;;
15476;SDS011;7840;42.702;23.296;2022-07-01T12:39:55;4.03;;;3.50;;
15476;SDS011;7840;42.702;23.296;2022-07-01T12:42:25;3.45;;;2.92;;
15476;SDS011;7840;42.702;23.296;2022-07-01T12:44:54;5.97;;;3.20;;
15476;SDS011;7840;42.702;23.296;2022-07-01T12:47:28;3.80;;;3.22;;
15476;SDS011;7840;42.702;23.296;2022-07-01T12:50:10;4.88;;;3.05;;
15476;SDS011;7840;42.702;23.296;2022-07-01T12:52:39;4.32;;;3.20;;
15476;SDS011;7840;42.702;23.296;2022-07-01T12:55:16;4.18;;;2.95;;
15476;SDS011;7840;42.702;23.296;2022-07-01T12:57:45;3.30;;;3.00;;
15476;SDS011;7840;42.702;23.296;2022-07-01T13:00:14;3.53;;;3.05;;
15476;SDS011;7840;42.702;23.296;2022-07-01T13:02:43;3.88;;;3.28;;
15476;SDS011;7840;42.702;23.296;2022-07-01T13:05:11;4.38;;;2.78;;
15476;SDS011;7840;42.702;23.296;2022-07-01T13:07:39;3.30;;;3.00;;
15476;SDS011;7840;42.702;23.296;2022-07-01T13:10:07;7.20;;;4.38;;
15476;SDS011;7840;42.702;23.296;2022-07-01T13:12:36;7.93;;;4.35;;
15476;SDS011;7840;42.702;23.296;2022-07-01T13:15:04;5.72;;;4.20;;
15476;SDS011;7840;42.702;23.296;2022-07-01T13:17:32;4.53;;;3.90;;
15476;SDS011;7840;42.702;23.296;2022-07-01T13:20:04;4.40;;;4.00;;
15476;SDS011;7840;42.702;23.296;2022-07-01T13:22:33;4.53;;;4.13;;
15476;SDS011;7840;42.702;23.296;2022-07-01T13:25:01;5.68;;;3.67;;
15476;SDS011;7840;42.702;23.296;2022-07-01T13:27:30;5.90;;;4.40;;
15476;SDS011;7840;42.702;23.296;2022-07-01T13:29:59;4.10;;;3.80;;
15476;SDS011;7840;42.702;23.296;2022-07-01T13:32:43;6.05;;;4.10;;
15476;SDS011;7840;42.702;23.296;2022-07-01T13:35:11;5.88;;;3.85;;
15476;SDS011;7840;42.702;23.296;2022-07-01T13:37:39;3.97;;;3.58;;
15476;SDS011;7840;42.702;23.296;2022-07-01T13:40:08;4.85;;;4.05;;
15476;SDS011;7840;42.702;23.296;2022-07-01T13:42:40;4.32;;;3.90;;
15476;SDS011;7840;42.702;23.296;2022-07-01T13:45:10;4.18;;;3.85;;
15476;SDS011;7840;42.702;23.296;2022-07-01T13:47:38;5.72;;;3.85;;
15476;SDS011;7840;42.702;23.296;2022-07-01T13:50:07;4.05;;;3.78;;
15476;SDS011;7840;42.702;23.296;2022-07-01T13:53:13;4.90;;;4.32;;
15476;SDS011;7840;42.702;23.296;2022-07-01T13:55:41;8.70;;;4.18;;
15476;SDS011;7840;42.702;23.296;2022-07-01T13:58:09;4.78;;;4.38;;
15476;SDS011;7840;42.702;23.296;2022-07-01T14:00:38;4.22;;;3.92;;
15476;SDS011;7840;42.702;23.296;2022-07-01T14:03:06;8.13;;;4.03;;
15476;SDS011;7840;42.702;23.296;2022-07-01T14:05:35;6.97;;;4.70;;
15476;SDS011;7840;42.702;23.296;2022-07-01T14:08:03;6.45;;;5.15;;
15476;SDS011;7840;42.702;23.296;2022-07-01T14:10:33;6.57;;;4.80;;
15476;SDS011;7840;42.702;23.296;2022-07-01T14:13:03;5.65;;;4.60;;
15476;SDS011;7840;42.702;23.296;2022-07-01T14:15:36;7.65;;;4.57;;
15476;SDS011;7840;42.702;23.296;2022-07-01T14:18:08;5.18;;;4.53;;
15476;SDS011;7840;42.702;23.296;2022-07-01T14:20:36;6.18;;;4.97;;
15476;SDS011;7840;42.702;23.296;2022-07-01T14:23:04;6.68;;;4.47;;
15476;SDS011;7840;42.702;23.296;2022-07-01T14:25:33;7.03;;;4.70;;
15476;SDS011;7840;42.702;23.296;2022-07-01T14:30:45;12.48;;;5.20;;
15476;SDS011;7840;42.702;23.296;2022-07-01T14:33:12;6.32;;;4.90;;
15476;SDS011;7840;42.702;23.296;2022-07-01T14:35:43;5.85;;;4.85;;
15476;SDS011;7840;42.702;23.296;2022-07-01T14:38:11;8.65;;;4.85;;
15476;SDS011;7840;42.702;23.296;2022-07-01T14:40:41;4.68;;;4.18;;
15476;SDS011;7840;42.702;23.296;2022-07-01T14:43:09;7.22;;;4.55;;
15476;SDS011;7840;42.702;23.296;2022-07-01T14:45:40;6.38;;;4.75;;
15476;SDS011;7840;42.702;23.296;2022-07-01T14:48:08;5.82;;;4.25;;
15476;SDS011;7840;42.702;23.296;2022-07-01T14:50:37;6.13;;;3.83;;
15476;SDS011;7840;42.702;23.296;2022-07-01T14:53:08;4.32;;;3.88;;
15476;SDS011;7840;42.702;23.296;2022-07-01T14:55:36;4.35;;;3.95;;
15476;SDS011;7840;42.702;23.296;2022-07-01T15:00:47;4.38;;;4.00;;
15476;SDS011;7840;42.702;23.296;2022-07-01T15:03:17;4.55;;;3.85;;
15476;SDS011;7840;42.702;23.296;2022-07-01T15:05:45;6.22;;;4.20;;
15476;SDS011;7840;42.702;23.296;2022-07-01T15:10:56;4.53;;;4.13;;
15476;SDS011;7840;42.702;23.296;2022-07-01T15:13:30;5.43;;;4.18;;
15476;SDS011;7840;42.702;23.296;2022-07-01T15:15:58;4.45;;;4.10;;
15476;SDS011;7840;42.702;23.296;2022-07-01T15:18:26;6.30;;;4.40;;
15476;SDS011;7840;42.702;23.296;2022-07-01T15:20:54;4.88;;;4.38;;
15476;SDS011;7840;42.702;23.296;2022-07-01T15:23:25;8.45;;;4.75;;
15476;SDS011;7840;42.702;23.296;2022-07-01T15:25:54;7.13;;;4.50;;
15476;SDS011;7840;42.702;23.296;2022-07-01T15:28:25;4.82;;;4.35;;
15476;SDS011;7840;42.702;23.296;2022-07-01T15:30:54;5.72;;;4.80;;
15476;SDS011;7840;42.702;23.296;2022-07-01T15:33:28;5.53;;;4.28;;
15476;SDS011;7840;42.702;23.296;2022-07-01T15:35:57;4.90;;;4.40;;
15476;SDS011;7840;42.702;23.296;2022-07-01T15:38:25;6.78;;;4.10;;